sensor_id;sensor_type;location;lat;lon;timestamp;pressure;altitude;pressure_sealevel;temperature;humidity
63399;BME280;49533;-34.520;150.798;2023-02-28T00:00:20;100275.88;;;22.97;66.82
63399;BME280;49533;-34.520;150.798;2023-02-28T00:02:47;100280.59;;;22.96;67.00
63399;BME280;49533;-34.520;150.798;2023-02-28T00:05:18;100278.63;;;23.08;66.89
63399;BME280;49533;-34.520;150.798;2023-02-28T00:07:47;100277.44;;;23.09;66.79
63399;BME280;49533;-34.520;150.798;2023-02-28T00:10:18;100279.00;;;23.13;66.91
63399;BME280;49533;-34.520;150.798;2023-02-28T00:12:49;100269.09;;;23.16;66.87
63399;BME280;49533;-34.520;150.798;2023-02-28T00:15:17;100258.00;;;23.23;66.67
63399;BME280;49533;-34.520;150.798;2023-02-28T00:17:45;100268.28;;;23.26;66.76
63399;BME280;49533;-34.520;150.798;2023-02-28T00:20:13;100265.50;;;23.26;66.62
63399;BME280;49533;-34.520;150.798;2023-02-28T00:22:43;100250.88;;;23.29;66.81
63399;BME280;49533;-34.520;150.798;2023-02-28T00:25:12;100256.78;;;23.31;66.75
63399;BME280;49533;-34.520;150.798;2023-02-28T00:27:40;100246.91;;;23.30;66.64
63399;BME280;49533;-34.520;150.798;2023-02-28T00:30:10;100250.84;;;23.40;66.79
63399;BME280;49533;-34.520;150.798;2023-02-28T00:32:38;100250.03;;;23.43;66.83
63399;BME280;49533;-34.520;150.798;2023-02-28T00:35:06;100241.31;;;23.44;66.79
63399;BME280;49533;-34.520;150.798;2023-02-28T00:37:34;100237.34;;;23.46;67.01
63399;BME280;49533;-34.520;150.798;2023-02-28T00:40:01;100224.69;;;23.41;66.66
63399;BME280;49533;-34.520;150.798;2023-02-28T00:42:31;100219.97;;;23.34;66.89
63399;BME280;49533;-34.520;150.798;2023-02-28T00:44:58;100216.78;;;23.39;67.10
63399;BME280;49533;-34.520;150.798;2023-02-28T00:47:25;100214.34;;;23.49;67.22
63399;BME280;49533;-34.520;150.798;2023-02-28T00:49:53;100203.69;;;23.47;66.91
63399;BME280;49533;-34.520;150.798;2023-02-28T00:52:20;100210.34;;;23.60;66.99
63399;BME280;49533;-34.520;150.798;2023-02-28T00:54:47;100209.16;;;23.61;67.02
63399;BME280;49533;-34.520;150.798;2023-02-28T00:57:14;100204.81;;;23.60;66.81
63399;BME280;49533;-34.520;150.798;2023-02-28T00:59:42;100195.69;;;23.56;67.13
63399;BME280;49533;-34.520;150.798;2023-02-28T01:02:09;100193.28;;;23.62;67.03
63399;BME280;49533;-34.520;150.798;2023-02-28T01:04:36;100197.63;;;23.66;66.61
63399;BME280;49533;-34.520;150.798;2023-02-28T01:07:03;100191.31;;;23.66;66.98
63399;BME280;49533;-34.520;150.798;2023-02-28T01:09:31;100183.78;;;23.63;66.75
63399;BME280;49533;-34.520;150.798;2023-02-28T01:11:58;100192.09;;;23.66;66.92
63399;BME280;49533;-34.520;150.798;2023-02-28T01:14:25;100179.81;;;23.64;67.14
63399;BME280;49533;-34.520;150.798;2023-02-28T01:16:52;100172.28;;;23.64;67.06
63399;BME280;49533;-34.520;150.798;2023-02-28T01:19:19;100168.34;;;23.65;67.14
63399;BME280;49533;-34.520;150.798;2023-02-28T01:21:46;100156.41;;;23.69;67.10
63399;BME280;49533;-34.520;150.798;2023-02-28T01:24:14;100158.38;;;23.72;67.08
63399;BME280;49533;-34.520;150.798;2023-02-28T01:26:41;100154.44;;;23.76;66.88
63399;BME280;49533;-34.520;150.798;2023-02-28T01:29:08;100153.22;;;23.77;66.96
63399;BME280;49533;-34.520;150.798;2023-02-28T01:31:35;100149.28;;;23.78;67.02
63399;BME280;49533;-34.520;150.798;2023-02-28T01:34:02;100143.28;;;23.80;66.92
63399;BME280;49533;-34.520;150.798;2023-02-28T01:36:30;100138.94;;;23.79;67.13
63399;BME280;49533;-34.520;150.798;2023-02-28T01:38:57;100134.97;;;23.80;67.09
63399;BME280;49533;-34.520;150.798;2023-02-28T01:41:27;100141.72;;;23.79;66.94
63399;BME280;49533;-34.520;150.798;2023-02-28T01:43:58;100129.03;;;23.81;67.27
63399;BME280;49533;-34.520;150.798;2023-02-28T01:46:25;100113.59;;;23.80;67.06
63399;BME280;49533;-34.520;150.798;2023-02-28T01:49:03;100116.72;;;23.82;67.05
63399;BME280;49533;-34.520;150.798;2023-02-28T01:51:43;100117.13;;;23.84;67.12
63399;BME280;49533;-34.520;150.798;2023-02-28T01:54:16;100114.38;;;23.81;67.19
63399;BME280;49533;-34.520;150.798;2023-02-28T01:56:54;100115.53;;;23.83;67.03
63399;BME280;49533;-34.520;150.798;2023-02-28T01:59:35;100100.94;;;23.76;66.94
63399;BME280;49533;-34.520;150.798;2023-02-28T02:02:04;100110.38;;;23.85;66.96
63399;BME280;49533;-34.520;150.798;2023-02-28T02:04:37;100097.69;;;23.84;66.69
63399;BME280;49533;-34.520;150.798;2023-02-28T02:07:06;100090.94;;;23.89;66.90
63399;BME280;49533;-34.520;150.798;2023-02-28T02:09:33;100076.66;;;23.87;67.51
63399;BME280;49533;-34.520;150.798;2023-02-28T02:12:17;100083.03;;;23.84;67.24
63399;BME280;49533;-34.520;150.798;2023-02-28T02:15:05;100079.09;;;23.81;68.01
63399;BME280;49533;-34.520;150.798;2023-02-28T02:17:50;100071.53;;;23.85;68.08
63399;BME280;49533;-34.520;150.798;2023-02-28T02:20:38;100057.97;;;23.95;67.71
63399;BME280;49533;-34.520;150.798;2023-02-28T02:23:42;100051.59;;;24.01;67.58
63399;BME280;49533;-34.520;150.798;2023-02-28T02:29:35;100042.00;;;24.09;67.51
63399;BME280;49533;-34.520;150.798;2023-02-28T02:32:10;100049.47;;;24.16;67.31
63399;BME280;49533;-34.520;150.798;2023-02-28T02:35:01;100055.03;;;24.16;67.38
63399;BME280;49533;-34.520;150.798;2023-02-28T02:37:47;100041.94;;;24.13;67.36
63399;BME280;49533;-34.520;150.798;2023-02-28T02:40:20;100056.59;;;24.17;66.87
63399;BME280;49533;-34.520;150.798;2023-02-28T02:43:13;100039.94;;;24.17;67.01
63399;BME280;49533;-34.520;150.798;2023-02-28T02:45:47;100030.06;;;24.13;67.00
63399;BME280;49533;-34.520;150.798;2023-02-28T02:48:19;100031.59;;;24.17;66.95
63399;BME280;49533;-34.520;150.798;2023-02-28T02:50:51;100021.34;;;24.14;66.88
63399;BME280;49533;-34.520;150.798;2023-02-28T02:53:24;100020.50;;;24.17;67.17
63399;BME280;49533;-34.520;150.798;2023-02-28T02:55:54;100014.56;;;24.15;67.21
63399;BME280;49533;-34.520;150.798;2023-02-28T02:58:25;100011.81;;;24.15;66.71
63399;BME280;49533;-34.520;150.798;2023-02-28T03:00:57;100008.56;;;24.20;66.78
63399;BME280;49533;-34.520;150.798;2023-02-28T03:03:27;100000.22;;;24.24;67.16
63399;BME280;49533;-34.520;150.798;2023-02-28T03:05:58;99991.47;;;24.25;67.34
63399;BME280;49533;-34.520;150.798;2023-02-28T03:08:27;99978.38;;;24.26;66.91
63399;BME280;49533;-34.520;150.798;2023-02-28T03:10:59;99988.56;;;24.36;67.03
63399;BME280;49533;-34.520;150.798;2023-02-28T03:13:42;99984.59;;;24.37;66.95
63399;BME280;49533;-34.520;150.798;2023-02-28T03:16:27;99983.38;;;24.42;66.79
63399;BME280;49533;-34.520;150.798;2023-02-28T03:19:15;99973.81;;;24.43;66.50
63399;BME280;49533;-34.520;150.798;2023-02-28T03:22:01;99967.88;;;24.44;66.52
63399;BME280;49533;-34.520;150.798;2023-02-28T03:24:43;99964.28;;;24.47;66.45
63399;BME280;49533;-34.520;150.798;2023-02-28T03:27:26;99962.69;;;24.46;66.90
63399;BME280;49533;-34.520;150.798;2023-02-28T03:30:10;99950.41;;;24.47;67.19
63399;BME280;49533;-34.520;150.798;2023-02-28T03:32:47;99943.25;;;24.46;66.91
63399;BME280;49533;-34.520;150.798;2023-02-28T03:35:23;99947.94;;;24.53;66.57
63399;BME280;49533;-34.520;150.798;2023-02-28T03:38:05;99939.25;;;24.51;66.83
63399;BME280;49533;-34.520;150.798;2023-02-28T03:40:36;99932.84;;;24.54;66.54
63399;BME280;49533;-34.520;150.798;2023-02-28T03:43:12;99940.78;;;24.56;66.96
63399;BME280;49533;-34.520;150.798;2023-02-28T03:45:43;99926.50;;;24.54;66.89
63399;BME280;49533;-34.520;150.798;2023-02-28T03:48:16;99934.81;;;24.57;66.39
63399;BME280;49533;-34.520;150.798;2023-02-28T03:50:47;99925.31;;;24.55;66.18
63399;BME280;49533;-34.520;150.798;2023-02-28T03:53:28;99927.63;;;24.60;66.22
63399;BME280;49533;-34.520;150.798;2023-02-28T03:56:05;99911.44;;;24.55;65.91
63399;BME280;49533;-34.520;150.798;2023-02-28T03:58:45;99926.03;;;24.62;66.08
63399;BME280;49533;-34.520;150.798;2023-02-28T04:03:58;99898.66;;;24.61;66.09
63399;BME280;49533;-34.520;150.798;2023-02-28T04:06:25;99899.13;;;24.56;66.26
63399;BME280;49533;-34.520;150.798;2023-02-28T04:08:53;99895.50;;;24.59;66.33
63399;BME280;49533;-34.520;150.798;2023-02-28T04:11:24;99888.47;;;24.50;66.31
63399;BME280;49533;-34.520;150.798;2023-02-28T04:13:55;99885.22;;;24.56;65.82
63399;BME280;49533;-34.520;150.798;2023-02-28T04:16:22;99892.34;;;24.57;65.85
63399;BME280;49533;-34.520;150.798;2023-02-28T04:18:49;99887.63;;;24.54;65.59
63399;BME280;49533;-34.520;150.798;2023-02-28T04:21:19;99889.94;;;24.59;66.23
63399;BME280;49533;-34.520;150.798;2023-02-28T04:23:47;99886.00;;;24.56;65.88
63399;BME280;49533;-34.520;150.798;2023-02-28T04:26:14;99887.94;;;24.59;65.97
63399;BME280;49533;-34.520;150.798;2023-02-28T04:28:41;99883.97;;;24.60;65.68
63399;BME280;49533;-34.520;150.798;2023-02-28T04:31:09;99884.75;;;24.61;66.10
63399;BME280;49533;-34.520;150.798;2023-02-28T04:33:36;99885.53;;;24.61;66.00
63399;BME280;49533;-34.520;150.798;2023-02-28T04:36:05;99870.13;;;24.57;65.64
63399;BME280;49533;-34.520;150.798;2023-02-28T04:38:35;99874.88;;;24.60;65.83
63399;BME280;49533;-34.520;150.798;2023-02-28T04:41:04;99870.94;;;24.57;65.77
63399;BME280;49533;-34.520;150.798;2023-02-28T04:43:32;99871.72;;;24.58;65.81
63399;BME280;49533;-34.520;150.798;2023-02-28T04:46:02;99883.59;;;24.58;65.40
63399;BME280;49533;-34.520;150.798;2023-02-28T04:48:31;99876.84;;;24.59;65.48
63399;BME280;49533;-34.520;150.798;2023-02-28T04:51:01;99877.66;;;24.60;65.54
63399;BME280;49533;-34.520;150.798;2023-02-28T04:53:29;99866.53;;;24.60;65.61
63399;BME280;49533;-34.520;150.798;2023-02-28T04:55:57;99863.69;;;24.63;65.48
63399;BME280;49533;-34.520;150.798;2023-02-28T04:58:25;99854.78;;;24.76;65.17
63399;BME280;49533;-34.520;150.798;2023-02-28T05:00:53;99848.31;;;24.82;64.52
63399;BME280;49533;-34.520;150.798;2023-02-28T05:03:21;99853.72;;;24.93;64.44
63399;BME280;49533;-34.520;150.798;2023-02-28T05:05:48;99857.22;;;24.97;64.30
63399;BME280;49533;-34.520;150.798;2023-02-28T05:08:15;99841.66;;;25.03;64.31
63399;BME280;49533;-34.520;150.798;2023-02-28T05:10:43;99848.66;;;25.11;64.25
63399;BME280;49533;-34.520;150.798;2023-02-28T05:13:12;99823.41;;;25.02;63.84
63399;BME280;49533;-34.520;150.798;2023-02-28T05:15:40;99835.97;;;25.10;64.06
63399;BME280;49533;-34.520;150.798;2023-02-28T05:18:08;99838.69;;;25.14;63.70
63399;BME280;49533;-34.520;150.798;2023-02-28T05:20:35;99822.88;;;25.11;64.14
63399;BME280;49533;-34.520;150.798;2023-02-28T05:23:04;99831.41;;;25.24;63.73
63399;BME280;49533;-34.520;150.798;2023-02-28T05:25:31;99824.22;;;25.26;63.40
63399;BME280;49533;-34.520;150.798;2023-02-28T05:27:58;99823.06;;;25.24;63.67
63399;BME280;49533;-34.520;150.798;2023-02-28T05:30:25;99828.56;;;25.27;63.50
63399;BME280;49533;-34.520;150.798;2023-02-28T05:32:52;99820.59;;;25.29;63.39
63399;BME280;49533;-34.520;150.798;2023-02-28T05:35:19;99808.69;;;25.29;63.42
63399;BME280;49533;-34.520;150.798;2023-02-28T05:37:46;99808.19;;;25.34;63.17
63399;BME280;49533;-34.520;150.798;2023-02-28T05:40:13;99802.63;;;25.34;63.35
63399;BME280;49533;-34.520;150.798;2023-02-28T05:42:42;99801.41;;;25.35;63.20
63399;BME280;49533;-34.520;150.798;2023-02-28T05:45:09;99807.38;;;25.33;63.17
63399;BME280;49533;-34.520;150.798;2023-02-28T05:47:37;99799.41;;;25.35;63.40
63399;BME280;49533;-34.520;150.798;2023-02-28T05:50:05;99792.16;;;25.42;63.38
63399;BME280;49533;-34.520;150.798;2023-02-28T05:52:32;99794.50;;;25.43;63.10
63399;BME280;49533;-34.520;150.798;2023-02-28T05:54:59;99794.50;;;25.43;62.78
63399;BME280;49533;-34.520;150.798;2023-02-28T05:57:26;99796.78;;;25.48;63.07
63399;BME280;49533;-34.520;150.798;2023-02-28T05:59:54;99786.94;;;25.44;62.97
63399;BME280;49533;-34.520;150.798;2023-02-28T06:02:21;99783.75;;;25.45;63.10
63399;BME280;49533;-34.520;150.798;2023-02-28T06:04:48;99797.22;;;25.47;63.14
63399;BME280;49533;-34.520;150.798;2023-02-28T06:07:15;99794.50;;;25.43;63.13
63399;BME280;49533;-34.520;150.798;2023-02-28T06:09:43;99792.44;;;25.47;63.22
63399;BME280;49533;-34.520;150.798;2023-02-28T06:12:10;99788.44;;;25.48;62.93
63399;BME280;49533;-34.520;150.798;2023-02-28T06:14:37;99794.75;;;25.52;62.59
63399;BME280;49533;-34.520;150.798;2023-02-28T06:17:05;99784.81;;;25.51;62.75
63399;BME280;49533;-34.520;150.798;2023-02-28T06:19:32;99780.47;;;25.50;62.87
63399;BME280;49533;-34.520;150.798;2023-02-28T06:22:00;99782.03;;;25.51;63.09
63399;BME280;49533;-34.520;150.798;2023-02-28T06:24:27;99769.34;;;25.50;62.66
63399;BME280;49533;-34.520;150.798;2023-02-28T06:26:54;99781.25;;;25.51;62.80
63399;BME280;49533;-34.520;150.798;2023-02-28T06:29:22;99766.19;;;25.48;62.50
63399;BME280;49533;-34.520;150.798;2023-02-28T06:31:49;99772.03;;;25.54;62.47
63399;BME280;49533;-34.520;150.798;2023-02-28T06:34:17;99775.63;;;25.54;62.88
63399;BME280;49533;-34.520;150.798;2023-02-28T06:36:44;99770.47;;;25.53;62.62
63399;BME280;49533;-34.520;150.798;2023-02-28T06:39:11;99772.84;;;25.54;62.81
63399;BME280;49533;-34.520;150.798;2023-02-28T06:41:38;99783.47;;;25.59;62.76
63399;BME280;49533;-34.520;150.798;2023-02-28T06:44:12;99775.63;;;25.54;62.89
63399;BME280;49533;-34.520;150.798;2023-02-28T06:46:41;99762.06;;;25.56;62.51
63399;BME280;49533;-34.520;150.798;2023-02-28T06:49:10;99772.41;;;25.56;63.00
63399;BME280;49533;-34.520;150.798;2023-02-28T06:51:40;99774.81;;;25.54;62.96
63399;BME280;49533;-34.520;150.798;2023-02-28T06:54:08;99766.56;;;25.50;63.12
63399;BME280;49533;-34.520;150.798;2023-02-28T06:56:35;99780.06;;;25.52;62.81
63399;BME280;49533;-34.520;150.798;2023-02-28T06:59:03;99778.47;;;25.51;63.03
63399;BME280;49533;-34.520;150.798;2023-02-28T07:01:31;99771.75;;;25.48;62.55
63399;BME280;49533;-34.520;150.798;2023-02-28T07:03:59;99761.50;;;25.45;62.94
63399;BME280;49533;-34.520;150.798;2023-02-28T07:06:27;99763.06;;;25.46;62.65
63399;BME280;49533;-34.520;150.798;2023-02-28T07:08:54;99760.72;;;25.45;62.63
63399;BME280;49533;-34.520;150.798;2023-02-28T07:11:23;99755.06;;;25.48;63.00
63399;BME280;49533;-34.520;150.798;2023-02-28T07:13:53;99752.28;;;25.48;62.45
63399;BME280;49533;-34.520;150.798;2023-02-28T07:16:20;99763.41;;;25.48;62.71
63399;BME280;49533;-34.520;150.798;2023-02-28T07:18:49;99759.50;;;25.46;62.49
63399;BME280;49533;-34.520;150.798;2023-02-28T07:21:16;99748.16;;;25.36;62.67
63399;BME280;49533;-34.520;150.798;2023-02-28T07:23:43;99758.34;;;25.43;62.80
63399;BME280;49533;-34.520;150.798;2023-02-28T07:26:13;99769.06;;;25.45;62.65
63399;BME280;49533;-34.520;150.798;2023-02-28T07:28:42;99752.91;;;25.36;62.78
63399;BME280;49533;-34.520;150.798;2023-02-28T07:31:11;99751.38;;;25.35;62.49
63399;BME280;49533;-34.520;150.798;2023-02-28T07:33:40;99756.84;;;25.19;62.93
63399;BME280;49533;-34.520;150.798;2023-02-28T07:36:10;99758.28;;;25.03;62.85
63399;BME280;49533;-34.520;150.798;2023-02-28T07:38:43;99755.03;;;25.08;62.77
63399;BME280;49533;-34.520;150.798;2023-02-28T07:41:11;99754.22;;;25.08;62.86
63399;BME280;49533;-34.520;150.798;2023-02-28T07:43:38;99756.22;;;25.07;62.49
63399;BME280;49533;-34.520;150.798;2023-02-28T07:46:08;99759.78;;;25.08;62.67
63399;BME280;49533;-34.520;150.798;2023-02-28T07:48:36;99761.84;;;25.04;62.21
63399;BME280;49533;-34.520;150.798;2023-02-28T07:51:04;99750.44;;;24.98;62.22
63399;BME280;49533;-34.520;150.798;2023-02-28T07:53:31;99762.75;;;24.97;62.51
63399;BME280;49533;-34.520;150.798;2023-02-28T07:55:59;99760.41;;;24.95;61.81
63399;BME280;49533;-34.520;150.798;2023-02-28T07:58:28;99758.75;;;24.74;61.84
63399;BME280;49533;-34.520;150.798;2023-02-28T08:00:56;99758.91;;;24.67;61.59
63399;BME280;49533;-34.520;150.798;2023-02-28T08:03:24;99765.28;;;24.64;61.98
63399;BME280;49533;-34.520;150.798;2023-02-28T08:06:23;99766.91;;;24.62;61.93
63399;BME280;49533;-34.520;150.798;2023-02-28T08:08:52;99770.16;;;24.57;61.97
63399;BME280;49533;-34.520;150.798;2023-02-28T08:11:19;99768.66;;;24.52;62.39
63399;BME280;49533;-34.520;150.798;2023-02-28T08:13:46;99777.81;;;24.49;62.39
63399;BME280;49533;-34.520;150.798;2023-02-28T08:16:14;99771.06;;;24.50;62.50
63399;BME280;49533;-34.520;150.798;2023-02-28T08:18:43;99759.66;;;24.41;62.75
63399;BME280;49533;-34.520;150.798;2023-02-28T08:21:11;99768.78;;;24.41;63.26
63399;BME280;49533;-34.520;150.798;2023-02-28T08:23:39;99776.00;;;24.35;63.19
63399;BME280;49533;-34.520;150.798;2023-02-28T08:26:06;99774.50;;;24.30;63.67
63399;BME280;49533;-34.520;150.798;2023-02-28T08:28:34;99771.34;;;24.28;63.73
63399;BME280;49533;-34.520;150.798;2023-02-28T08:31:01;99772.97;;;24.26;63.73
63399;BME280;49533;-34.520;150.798;2023-02-28T08:33:33;99774.97;;;24.25;64.18
63399;BME280;49533;-34.520;150.798;2023-02-28T08:36:01;99774.19;;;24.25;64.49
63399;BME280;49533;-34.520;150.798;2023-02-28T08:38:28;99767.56;;;24.15;64.33
63399;BME280;49533;-34.520;150.798;2023-02-28T08:41:00;99781.13;;;24.09;64.70
63399;BME280;49533;-34.520;150.798;2023-02-28T08:43:28;99790.22;;;24.14;64.39
63399;BME280;49533;-34.520;150.798;2023-02-28T08:45:56;99786.63;;;24.13;64.35
63399;BME280;49533;-34.520;150.798;2023-02-28T08:48:24;99799.81;;;24.05;64.44
63399;BME280;49533;-34.520;150.798;2023-02-28T08:50:56;99800.25;;;24.04;64.77
63399;BME280;49533;-34.520;150.798;2023-02-28T08:53:24;99795.94;;;23.99;65.21
63399;BME280;49533;-34.520;150.798;2023-02-28T08:55:58;99797.63;;;23.93;65.12
63399;BME280;49533;-34.520;150.798;2023-02-28T08:58:25;99794.09;;;23.89;65.36
63399;BME280;49533;-34.520;150.798;2023-02-28T09:00:52;99790.22;;;23.79;65.88
63399;BME280;49533;-34.520;150.798;2023-02-28T09:03:20;99795.84;;;23.76;65.86
63399;BME280;49533;-34.520;150.798;2023-02-28T09:05:56;99791.00;;;23.80;66.07
63399;BME280;49533;-34.520;150.798;2023-02-28T09:08:24;99787.84;;;23.81;65.88
63399;BME280;49533;-34.520;150.798;2023-02-28T09:10:52;99795.06;;;23.75;66.21
63399;BME280;49533;-34.520;150.798;2023-02-28T09:13:20;99799.00;;;23.74;66.26
63399;BME280;49533;-34.520;150.798;2023-02-28T09:15:48;99803.63;;;23.88;65.66
63399;BME280;49533;-34.520;150.798;2023-02-28T09:18:15;99813.38;;;24.00;65.41
63399;BME280;49533;-34.520;150.798;2023-02-28T09:20:42;99812.19;;;24.01;65.50
63399;BME280;49533;-34.520;150.798;2023-02-28T09:23:11;99824.75;;;24.09;65.20
63399;BME280;49533;-34.520;150.798;2023-02-28T09:25:49;99819.97;;;24.09;65.03
63399;BME280;49533;-34.520;150.798;2023-02-28T09:28:17;99826.31;;;24.10;65.18
63399;BME280;49533;-34.520;150.798;2023-02-28T09:30:46;99824.06;;;24.01;64.98
63399;BME280;49533;-34.520;150.798;2023-02-28T09:33:14;99828.81;;;24.01;65.14
63399;BME280;49533;-34.520;150.798;2023-02-28T09:35:42;99841.81;;;24.07;65.33
63399;BME280;49533;-34.520;150.798;2023-02-28T09:38:10;99840.19;;;24.10;64.91
63399;BME280;49533;-34.520;150.798;2023-02-28T09:40:47;99838.63;;;24.09;64.93
63399;BME280;49533;-34.520;150.798;2023-02-28T09:43:15;99839.88;;;24.04;65.44
63399;BME280;49533;-34.520;150.798;2023-02-28T09:45:57;99851.72;;;24.08;65.06
63399;BME280;49533;-34.520;150.798;2023-02-28T09:48:32;99856.47;;;24.08;65.37
63399;BME280;49533;-34.520;150.798;2023-02-28T09:51:05;99863.22;;;24.07;65.49
63399;BME280;49533;-34.520;150.798;2023-02-28T09:53:38;99871.19;;;24.05;65.22
63399;BME280;49533;-34.520;150.798;2023-02-28T09:56:11;99872.78;;;24.02;65.49
63399;BME280;49533;-34.520;150.798;2023-02-28T09:58:51;99862.94;;;23.98;65.13
63399;BME280;49533;-34.520;150.798;2023-02-28T10:01:28;99872.00;;;24.02;65.63
63399;BME280;49533;-34.520;150.798;2023-02-28T10:04:03;99861.00;;;23.95;65.41
63399;BME280;49533;-34.520;150.798;2023-02-28T10:06:42;99878.41;;;23.99;65.09
63399;BME280;49533;-34.520;150.798;2023-02-28T10:09:17;99870.84;;;23.99;65.50
63399;BME280;49533;-34.520;150.798;2023-02-28T10:11:46;99856.72;;;23.86;65.27
63399;BME280;49533;-34.520;150.798;2023-02-28T10:14:22;99875.25;;;23.97;65.50
63399;BME280;49533;-34.520;150.798;2023-02-28T10:16:55;99870.94;;;23.92;65.29
63399;BME280;49533;-34.520;150.798;2023-02-28T10:19:30;99869.38;;;23.87;65.62
63399;BME280;49533;-34.520;150.798;2023-02-28T10:22:03;99883.50;;;24.04;64.82
63399;BME280;49533;-34.520;150.798;2023-02-28T10:24:40;99883.41;;;24.11;64.84
63399;BME280;49533;-34.520;150.798;2023-02-28T10:27:21;99890.44;;;24.19;64.40
63399;BME280;49533;-34.520;150.798;2023-02-28T10:29:53;99888.00;;;24.25;64.09
63399;BME280;49533;-34.520;150.798;2023-02-28T10:32:25;99896.25;;;24.28;64.52
63399;BME280;49533;-34.520;150.798;2023-02-28T10:34:57;99899.38;;;24.34;64.15
63399;BME280;49533;-34.520;150.798;2023-02-28T10:37:24;99885.50;;;24.34;64.29
63399;BME280;49533;-34.520;150.798;2023-02-28T10:39:52;99889.44;;;24.37;63.99
63399;BME280;49533;-34.520;150.798;2023-02-28T10:42:25;99893.31;;;24.43;63.93
63399;BME280;49533;-34.520;150.798;2023-02-28T10:45:06;99890.94;;;24.45;63.93
63399;BME280;49533;-34.520;150.798;2023-02-28T10:47:34;99894.88;;;24.44;63.74
63399;BME280;49533;-34.520;150.798;2023-02-28T10:50:02;99889.72;;;24.46;63.60
63399;BME280;49533;-34.520;150.798;2023-02-28T10:52:37;99885.44;;;24.38;63.82
63399;BME280;49533;-34.520;150.798;2023-02-28T10:55:22;99896.09;;;24.43;63.74
63399;BME280;49533;-34.520;150.798;2023-02-28T10:57:49;99898.84;;;24.46;63.56
63399;BME280;49533;-34.520;150.798;2023-02-28T11:00:20;99901.19;;;24.48;63.81
63399;BME280;49533;-34.520;150.798;2023-02-28T11:02:48;99899.59;;;24.50;63.55
63399;BME280;49533;-34.520;150.798;2023-02-28T11:05:29;99891.66;;;24.49;63.46
63399;BME280;49533;-34.520;150.798;2023-02-28T11:08:14;99891.25;;;24.50;63.87
63399;BME280;49533;-34.520;150.798;2023-02-28T11:10:47;99896.41;;;24.52;63.67
63399;BME280;49533;-34.520;150.798;2023-02-28T11:13:20;99901.97;;;24.48;63.76
63399;BME280;49533;-34.520;150.798;2023-02-28T11:15:58;99901.16;;;24.51;63.40
63399;BME280;49533;-34.520;150.798;2023-02-28T11:18:35;99905.50;;;24.52;63.38
63399;BME280;49533;-34.520;150.798;2023-02-28T11:21:04;99899.97;;;24.52;63.55
63399;BME280;49533;-34.520;150.798;2023-02-28T11:23:35;99879.03;;;24.44;63.54
63399;BME280;49533;-34.520;150.798;2023-02-28T11:26:04;99889.69;;;24.49;63.17
63399;BME280;49533;-34.520;150.798;2023-02-28T11:28:36;99889.63;;;24.53;63.29
63399;BME280;49533;-34.520;150.798;2023-02-28T11:33:52;99882.97;;;24.47;63.62
63399;BME280;49533;-34.520;150.798;2023-02-28T11:36:24;99897.19;;;24.52;63.74
63399;BME280;49533;-34.520;150.798;2023-02-28T11:38:56;99900.75;;;24.53;63.57
63399;BME280;49533;-34.520;150.798;2023-02-28T11:41:40;99896.41;;;24.52;63.31
63399;BME280;49533;-34.520;150.798;2023-02-28T11:44:32;99894.81;;;24.51;63.37
63399;BME280;49533;-34.520;150.798;2023-02-28T11:47:12;99897.66;;;24.47;63.44
63399;BME280;49533;-34.520;150.798;2023-02-28T11:49:59;99884.91;;;24.50;63.49
63399;BME280;49533;-34.520;150.798;2023-02-28T11:52:42;99875.44;;;24.47;63.71
63399;BME280;49533;-34.520;150.798;2023-02-28T11:55:27;99869.16;;;24.40;63.78
63399;BME280;49533;-34.520;150.798;2023-02-28T11:58:14;99876.25;;;24.44;63.40
63399;BME280;49533;-34.520;150.798;2023-02-28T12:01:01;99850.59;;;24.33;63.84
63399;BME280;49533;-34.520;150.798;2023-02-28T12:03:56;99852.53;;;24.36;63.79
63399;BME280;49533;-34.520;150.798;2023-02-28T12:06:40;99854.91;;;24.38;63.69
63399;BME280;49533;-34.520;150.798;2023-02-28T12:09:32;99867.22;;;24.37;63.85
63399;BME280;49533;-34.520;150.798;2023-02-28T12:15:24;99851.28;;;24.41;63.47
63399;BME280;49533;-34.520;150.798;2023-02-28T12:18:09;99837.88;;;24.36;63.33
63399;BME280;49533;-34.520;150.798;2023-02-28T12:20:54;99847.72;;;24.40;63.41
63399;BME280;49533;-34.520;150.798;2023-02-28T12:23:50;99824.84;;;24.33;63.74
63399;BME280;49533;-34.520;150.798;2023-02-28T12:26:31;99827.13;;;24.38;63.43
63399;BME280;49533;-34.520;150.798;2023-02-28T12:29:24;99834.25;;;24.39;63.22
63399;BME280;49533;-34.520;150.798;2023-02-28T12:32:12;99827.91;;;24.38;63.84
63399;BME280;49533;-34.520;150.798;2023-02-28T12:34:47;99815.72;;;24.32;63.32
63399;BME280;49533;-34.520;150.798;2023-02-28T12:37:20;99819.28;;;24.33;63.55
63399;BME280;49533;-34.520;150.798;2023-02-28T12:39:54;99817.66;;;24.35;63.36
63399;BME280;49533;-34.520;150.798;2023-02-28T12:42:29;99811.72;;;24.33;63.70
63399;BME280;49533;-34.520;150.798;2023-02-28T12:45:02;99809.72;;;24.34;63.65
63399;BME280;49533;-34.520;150.798;2023-02-28T12:47:33;99818.06;;;24.34;63.72
63399;BME280;49533;-34.520;150.798;2023-02-28T12:50:06;99818.44;;;24.36;63.54
63399;BME280;49533;-34.520;150.798;2023-02-28T12:53:00;99812.50;;;24.34;63.37
63399;BME280;49533;-34.520;150.798;2023-02-28T12:55:44;99809.00;;;24.29;63.33
63399;BME280;49533;-34.520;150.798;2023-02-28T12:58:20;99807.81;;;24.30;63.37
63399;BME280;49533;-34.520;150.798;2023-02-28T13:01:23;99810.56;;;24.30;63.56
63399;BME280;49533;-34.520;150.798;2023-02-28T13:09:53;99791.63;;;24.25;63.35